sensor_id;sensor_type;location;lat;lon;timestamp;pressure;altitude;pressure_sealevel;temperature;humidity
81511;BME280;70931;48.796;8.440;2023-06-24T00:00:38;98091.97;;;13.06;80.83
81511;BME280;70931;48.796;8.440;2023-06-24T00:03:04;98086.47;;;13.00;81.35
81511;BME280;70931;48.796;8.440;2023-06-24T00:05:33;98087.59;;;12.97;81.16
81511;BME280;70931;48.796;8.440;2023-06-24T00:08:00;98088.78;;;12.95;81.17
81511;BME280;70931;48.796;8.440;2023-06-24T00:10:30;98085.94;;;12.96;80.88
81511;BME280;70931;48.796;8.440;2023-06-24T00:12:56;98087.25;;;12.92;81.10
81511;BME280;70931;48.796;8.440;2023-06-24T00:15:23;98088.94;;;12.93;80.50
81511;BME280;70931;48.796;8.440;2023-06-24T00:17:50;98085.75;;;12.90;80.55
81511;BME280;70931;48.796;8.440;2023-06-24T00:20:17;98079.75;;;12.88;81.10
81511;BME280;70931;48.796;8.440;2023-06-24T00:22:44;98082.56;;;12.94;81.07
81511;BME280;70931;48.796;8.440;2023-06-24T00:25:15;98086.09;;;12.95;81.17
81511;BME280;70931;48.796;8.440;2023-06-24T00:27:41;98083.09;;;12.90;81.31
81511;BME280;70931;48.796;8.440;2023-06-24T00:30:09;98085.56;;;12.83;80.76
81511;BME280;70931;48.796;8.440;2023-06-24T00:32:36;98087.25;;;12.84;80.97
81511;BME280;70931;48.796;8.440;2023-06-24T00:35:03;98082.41;;;12.80;80.56
81511;BME280;70931;48.796;8.440;2023-06-24T00:37:30;98087.25;;;12.84;81.53
81511;BME280;70931;48.796;8.440;2023-06-24T00:39:57;98065.13;;;12.66;81.76
81511;BME280;70931;48.796;8.440;2023-06-24T00:42:23;98081.72;;;12.78;82.06
81511;BME280;70931;48.796;8.440;2023-06-24T00:44:50;98083.41;;;12.79;81.22
81511;BME280;70931;48.796;8.440;2023-06-24T00:47:17;98080.00;;;12.69;82.17
81511;BME280;70931;48.796;8.440;2023-06-24T00:49:45;98081.16;;;12.58;82.52
81511;BME280;70931;48.796;8.440;2023-06-24T00:52:12;98083.16;;;12.56;82.79
81511;BME280;70931;48.796;8.440;2023-06-24T00:54:43;98089.19;;;12.66;82.11
81511;BME280;70931;48.796;8.440;2023-06-24T00:57:10;98095.06;;;12.70;81.25
81511;BME280;70931;48.796;8.440;2023-06-24T00:59:38;98093.88;;;12.56;82.32
81511;BME280;70931;48.796;8.440;2023-06-24T01:02:07;98090.19;;;12.57;82.90
81511;BME280;70931;48.796;8.440;2023-06-24T01:04:34;98086.47;;;12.50;82.87
81511;BME280;70931;48.796;8.440;2023-06-24T01:07:01;98093.34;;;12.52;82.83
81511;BME280;70931;48.796;8.440;2023-06-24T01:09:28;98087.16;;;12.52;83.03
81511;BME280;70931;48.796;8.440;2023-06-24T01:11:55;98088.50;;;12.56;82.92
81511;BME280;70931;48.796;8.440;2023-06-24T01:14:22;98093.16;;;12.46;83.25
81511;BME280;70931;48.796;8.440;2023-06-24T01:16:59;98092.50;;;12.52;82.25
81511;BME280;70931;48.796;8.440;2023-06-24T01:33:28;98082.97;;;12.49;82.42
81511;BME280;70931;48.796;8.440;2023-06-24T01:35:59;98086.13;;;12.45;81.56
81511;BME280;70931;48.796;8.440;2023-06-24T01:38:36;98083.34;;;12.21;81.62
81511;BME280;70931;48.796;8.440;2023-06-24T01:41:04;98086.84;;;12.13;82.12
81511;BME280;70931;48.796;8.440;2023-06-24T01:43:34;98070.97;;;12.20;82.74
81511;BME280;70931;48.796;8.440;2023-06-24T01:46:03;98079.69;;;12.22;82.71
81511;BME280;70931;48.796;8.440;2023-06-24T01:48:35;98073.38;;;12.31;82.89
81511;BME280;70931;48.796;8.440;2023-06-24T01:51:13;98072.53;;;12.30;83.62
81511;BME280;70931;48.796;8.440;2023-06-24T01:53:44;98055.94;;;12.19;82.88
81511;BME280;70931;48.796;8.440;2023-06-24T01:56:15;98074.69;;;12.27;83.66
81511;BME280;70931;48.796;8.440;2023-06-24T01:58:45;98072.13;;;12.17;84.26
81511;BME280;70931;48.796;8.440;2023-06-24T02:01:13;98076.53;;;12.26;84.55
81511;BME280;70931;48.796;8.440;2023-06-24T02:03:41;98064.31;;;12.24;84.48
81511;BME280;70931;48.796;8.440;2023-06-24T02:06:09;98061.50;;;12.33;84.54
81511;BME280;70931;48.796;8.440;2023-06-24T02:08:38;98062.28;;;12.18;82.38
81511;BME280;70931;48.796;8.440;2023-06-24T02:11:08;98074.41;;;12.04;82.76
81511;BME280;70931;48.796;8.440;2023-06-24T02:13:36;98066.59;;;12.11;83.77
81511;BME280;70931;48.796;8.440;2023-06-24T02:16:03;98067.94;;;12.15;83.54
81511;BME280;70931;48.796;8.440;2023-06-24T02:18:34;98066.47;;;12.20;84.22
81511;BME280;70931;48.796;8.440;2023-06-24T02:21:03;98065.97;;;12.17;84.54
81511;BME280;70931;48.796;8.440;2023-06-24T02:23:29;98069.31;;;12.19;84.75
81511;BME280;70931;48.796;8.440;2023-06-24T02:25:57;98060.09;;;12.13;84.72
81511;BME280;70931;48.796;8.440;2023-06-24T02:28:24;98070.66;;;12.23;83.54
81511;BME280;70931;48.796;8.440;2023-06-24T02:30:51;98061.41;;;12.09;82.02
81511;BME280;70931;48.796;8.440;2023-06-24T02:33:18;98062.84;;;11.95;82.51
81511;BME280;70931;48.796;8.440;2023-06-24T02:35:45;98072.16;;;11.91;82.78
81511;BME280;70931;48.796;8.440;2023-06-24T02:38:12;98072.53;;;11.96;84.44
81511;BME280;70931;48.796;8.440;2023-06-24T02:40:39;98071.22;;;12.00;84.42
81511;BME280;70931;48.796;8.440;2023-06-24T02:43:06;98074.25;;;12.06;83.17
81511;BME280;70931;48.796;8.440;2023-06-24T02:45:32;98071.56;;;12.06;81.77
81511;BME280;70931;48.796;8.440;2023-06-24T02:47:59;98069.50;;;11.91;82.39
81511;BME280;70931;48.796;8.440;2023-06-24T02:50:26;98065.66;;;11.94;83.32
81511;BME280;70931;48.796;8.440;2023-06-24T02:52:54;98076.78;;;12.07;84.34
81511;BME280;70931;48.796;8.440;2023-06-24T02:55:26;98064.59;;;12.13;82.60
81511;BME280;70931;48.796;8.440;2023-06-24T02:57:58;98066.81;;;11.91;82.12
81511;BME280;70931;48.796;8.440;2023-06-24T03:00:44;98067.13;;;11.88;82.59
81511;BME280;70931;48.796;8.440;2023-06-24T03:03:29;98063.66;;;11.88;83.38
81511;BME280;70931;48.796;8.440;2023-06-24T03:05:57;98057.91;;;11.83;83.63
81511;BME280;70931;48.796;8.440;2023-06-24T03:08:26;98065.34;;;11.97;84.17
81511;BME280;70931;48.796;8.440;2023-06-24T03:10:55;98064.53;;;11.96;84.81
81511;BME280;70931;48.796;8.440;2023-06-24T03:13:29;98066.19;;;11.97;85.17
81511;BME280;70931;48.796;8.440;2023-06-24T03:16:11;98061.78;;;11.88;85.32
81511;BME280;70931;48.796;8.440;2023-06-24T03:18:47;98074.69;;;11.93;85.64
81511;BME280;70931;48.796;8.440;2023-06-24T03:21:13;98077.19;;;11.94;85.30
81511;BME280;70931;48.796;8.440;2023-06-24T03:23:40;98076.53;;;11.92;85.44
81511;BME280;70931;48.796;8.440;2023-06-24T03:26:10;98081.19;;;11.90;85.84
81511;BME280;70931;48.796;8.440;2023-06-24T03:28:37;98073.63;;;11.86;83.15
81511;BME280;70931;48.796;8.440;2023-06-24T03:31:10;98078.78;;;11.79;82.89
81511;BME280;70931;48.796;8.440;2023-06-24T03:33:37;98080.63;;;11.79;84.13
81511;BME280;70931;48.796;8.440;2023-06-24T03:36:05;98078.78;;;11.79;85.45
81511;BME280;70931;48.796;8.440;2023-06-24T03:38:33;98084.28;;;11.78;84.99
81511;BME280;70931;48.796;8.440;2023-06-24T03:41:00;98081.13;;;11.82;84.28
81511;BME280;70931;48.796;8.440;2023-06-24T03:43:26;98080.66;;;11.87;83.32
81511;BME280;70931;48.796;8.440;2023-06-24T03:45:54;98080.66;;;11.87;83.25
81511;BME280;70931;48.796;8.440;2023-06-24T03:48:21;98092.69;;;11.91;85.04
81511;BME280;70931;48.796;8.440;2023-06-24T03:50:48;98091.25;;;11.96;84.69
81511;BME280;70931;48.796;8.440;2023-06-24T03:53:14;98094.84;;;12.13;84.10
81511;BME280;70931;48.796;8.440;2023-06-24T03:55:41;98095.84;;;12.12;84.38
81511;BME280;70931;48.796;8.440;2023-06-24T03:58:08;98084.19;;;12.21;83.08
81511;BME280;70931;48.796;8.440;2023-06-24T04:00:34;98104.09;;;12.27;81.79
81511;BME280;70931;48.796;8.440;2023-06-24T04:03:06;98106.75;;;12.19;83.82
81511;BME280;70931;48.796;8.440;2023-06-24T04:05:34;98093.41;;;12.27;82.28
81511;BME280;70931;48.796;8.440;2023-06-24T04:08:01;98106.44;;;12.22;83.78
81511;BME280;70931;48.796;8.440;2023-06-24T04:10:32;98103.41;;;12.17;84.96
81511;BME280;70931;48.796;8.440;2023-06-24T04:12:58;98108.09;;;12.23;84.90
81511;BME280;70931;48.796;8.440;2023-06-24T04:15:25;98105.78;;;12.28;83.42
81511;BME280;70931;48.796;8.440;2023-06-24T04:17:52;98106.00;;;12.09;83.10
81511;BME280;70931;48.796;8.440;2023-06-24T04:20:19;98104.66;;;12.05;83.13
81511;BME280;70931;48.796;8.440;2023-06-24T04:22:46;98105.72;;;12.20;83.29
81511;BME280;70931;48.796;8.440;2023-06-24T04:25:12;98109.47;;;12.27;84.08
81511;BME280;70931;48.796;8.440;2023-06-24T04:27:39;98107.31;;;12.30;83.60
81511;BME280;70931;48.796;8.440;2023-06-24T04:30:07;98105.28;;;12.24;83.66
81511;BME280;70931;48.796;8.440;2023-06-24T04:32:34;98109.63;;;12.25;83.27
81511;BME280;70931;48.796;8.440;2023-06-24T04:35:00;98113.50;;;12.31;83.17
81511;BME280;70931;48.796;8.440;2023-06-24T04:37:28;98110.81;;;12.31;85.06
81511;BME280;70931;48.796;8.440;2023-06-24T04:39:55;98114.19;;;12.41;85.10
81511;BME280;70931;48.796;8.440;2023-06-24T04:42:22;98111.22;;;12.44;84.90
81511;BME280;70931;48.796;8.440;2023-06-24T04:44:50;98113.84;;;12.36;85.50
81511;BME280;70931;48.796;8.440;2023-06-24T04:47:20;98113.00;;;12.35;85.26
81511;BME280;70931;48.796;8.440;2023-06-24T04:49:46;98115.91;;;12.50;83.93
81511;BME280;70931;48.796;8.440;2023-06-24T04:52:13;98113.25;;;12.58;83.61
81511;BME280;70931;48.796;8.440;2023-06-24T04:54:39;98115.28;;;12.56;84.08
81511;BME280;70931;48.796;8.440;2023-06-24T04:57:09;98116.66;;;12.68;82.74
81511;BME280;70931;48.796;8.440;2023-06-24T04:59:48;98112.94;;;12.61;83.25
81511;BME280;70931;48.796;8.440;2023-06-24T05:02:15;98105.75;;;12.53;84.92
81511;BME280;70931;48.796;8.440;2023-06-24T05:04:42;98112.25;;;12.51;85.42
81511;BME280;70931;48.796;8.440;2023-06-24T05:07:08;98117.78;;;12.57;84.67
81511;BME280;70931;48.796;8.440;2023-06-24T05:09:35;98113.47;;;12.65;83.76
81511;BME280;70931;48.796;8.440;2023-06-24T05:12:04;98109.00;;;12.81;83.07
81511;BME280;70931;48.796;8.440;2023-06-24T05:14:31;98116.34;;;12.79;83.10
81511;BME280;70931;48.796;8.440;2023-06-24T05:16:58;98125.38;;;12.78;84.64
81511;BME280;70931;48.796;8.440;2023-06-24T05:19:24;98119.72;;;12.89;83.30
81511;BME280;70931;48.796;8.440;2023-06-24T05:21:51;98121.06;;;12.85;82.99
81511;BME280;70931;48.796;8.440;2023-06-24T05:24:17;98116.66;;;12.68;83.82
81511;BME280;70931;48.796;8.440;2023-06-24T05:26:49;98127.38;;;12.76;83.75
81511;BME280;70931;48.796;8.440;2023-06-24T05:29:19;98128.41;;;12.83;85.00
81511;BME280;70931;48.796;8.440;2023-06-24T05:31:45;98127.94;;;12.96;85.95
81511;BME280;70931;48.796;8.440;2023-06-24T05:34:12;98136.84;;;13.04;85.88
81511;BME280;70931;48.796;8.440;2023-06-24T05:36:39;98129.53;;;13.23;86.16
81511;BME280;70931;48.796;8.440;2023-06-24T05:39:06;98129.56;;;13.31;85.82
81511;BME280;70931;48.796;8.440;2023-06-24T05:41:34;98128.53;;;13.32;86.13
81511;BME280;70931;48.796;8.440;2023-06-24T05:44:07;98130.22;;;13.33;86.74
81511;BME280;70931;48.796;8.440;2023-06-24T05:46:34;98134.91;;;13.55;86.15
81511;BME280;70931;48.796;8.440;2023-06-24T05:49:00;98135.94;;;13.62;85.43
81511;BME280;70931;48.796;8.440;2023-06-24T05:51:27;98127.88;;;13.62;85.27
81511;BME280;70931;48.796;8.440;2023-06-24T05:53:53;98121.66;;;13.69;85.19
81511;BME280;70931;48.796;8.440;2023-06-24T05:56:21;98129.88;;;13.84;85.50
81511;BME280;70931;48.796;8.440;2023-06-24T05:58:48;98133.72;;;13.82;84.57
81511;BME280;70931;48.796;8.440;2023-06-24T06:01:15;98132.19;;;13.95;84.91
81511;BME280;70931;48.796;8.440;2023-06-24T06:03:42;98125.50;;;14.07;84.47
81511;BME280;70931;48.796;8.440;2023-06-24T06:06:08;98129.69;;;14.02;85.19
81511;BME280;70931;48.796;8.440;2023-06-24T06:08:35;98123.81;;;14.06;85.24
81511;BME280;70931;48.796;8.440;2023-06-24T06:11:01;98122.78;;;14.15;84.87
81511;BME280;70931;48.796;8.440;2023-06-24T06:13:33;98130.66;;;14.33;84.47
81511;BME280;70931;48.796;8.440;2023-06-24T06:15:59;98126.91;;;14.50;83.59
81511;BME280;70931;48.796;8.440;2023-06-24T06:18:26;98129.44;;;14.52;83.53
81511;BME280;70931;48.796;8.440;2023-06-24T06:20:53;98117.63;;;14.61;83.45
81511;BME280;70931;48.796;8.440;2023-06-24T06:23:19;98126.03;;;14.66;84.18
81511;BME280;70931;48.796;8.440;2023-06-24T06:25:46;98127.31;;;14.70;83.46
81511;BME280;70931;48.796;8.440;2023-06-24T06:28:14;98121.56;;;14.81;83.04
81511;BME280;70931;48.796;8.440;2023-06-24T06:30:41;98126.72;;;14.91;82.40
81511;BME280;70931;48.796;8.440;2023-06-24T06:33:07;98133.59;;;14.93;82.25
81511;BME280;70931;48.796;8.440;2023-06-24T06:35:34;98128.22;;;14.93;82.29
81511;BME280;70931;48.796;8.440;2023-06-24T06:38:00;98132.03;;;14.99;82.22
81511;BME280;70931;48.796;8.440;2023-06-24T06:40:27;98129.44;;;15.13;81.80
81511;BME280;70931;48.796;8.440;2023-06-24T06:42:54;98113.97;;;15.15;81.03
81511;BME280;70931;48.796;8.440;2023-06-24T06:45:21;98127.38;;;15.23;81.51
81511;BME280;70931;48.796;8.440;2023-06-24T06:47:49;98130.66;;;15.33;81.40
81511;BME280;70931;48.796;8.440;2023-06-24T06:50:16;98119.25;;;15.31;81.81
81511;BME280;70931;48.796;8.440;2023-06-24T06:52:43;98119.16;;;15.48;81.18
81511;BME280;70931;48.796;8.440;2023-06-24T06:55:10;98114.06;;;15.53;81.15
81511;BME280;70931;48.796;8.440;2023-06-24T06:57:36;98112.91;;;15.70;80.30
81511;BME280;70931;48.796;8.440;2023-06-24T07:00:03;98114.06;;;15.75;80.84
81511;BME280;70931;48.796;8.440;2023-06-24T07:02:30;98111.66;;;15.80;80.71
81511;BME280;70931;48.796;8.440;2023-06-24T07:04:57;98104.34;;;15.89;80.23
81511;BME280;70931;48.796;8.440;2023-06-24T07:07:23;98112.34;;;15.97;79.99
81511;BME280;70931;48.796;8.440;2023-06-24T07:09:50;98104.56;;;16.02;79.48
81511;BME280;70931;48.796;8.440;2023-06-24T07:12:17;98101.50;;;16.20;79.08
81511;BME280;70931;48.796;8.440;2023-06-24T07:14:44;98110.34;;;16.28;78.81
81511;BME280;70931;48.796;8.440;2023-06-24T07:17:11;98106.34;;;16.39;78.37
81511;BME280;70931;48.796;8.440;2023-06-24T07:19:37;98105.59;;;16.45;78.34
81511;BME280;70931;48.796;8.440;2023-06-24T07:22:04;98095.91;;;16.59;76.96
81511;BME280;70931;48.796;8.440;2023-06-24T07:24:31;98099.50;;;16.66;76.31
81511;BME280;70931;48.796;8.440;2023-06-24T07:26:58;98098.09;;;16.70;76.09
81511;BME280;70931;48.796;8.440;2023-06-24T07:29:24;98100.69;;;16.78;75.78
81511;BME280;70931;48.796;8.440;2023-06-24T07:31:51;98100.31;;;16.81;75.37
81511;BME280;70931;48.796;8.440;2023-06-24T07:34:17;98102.13;;;16.95;73.62
81511;BME280;70931;48.796;8.440;2023-06-24T07:36:44;98099.56;;;17.08;72.49
81511;BME280;70931;48.796;8.440;2023-06-24T07:39:11;98101.38;;;17.22;72.47
81511;BME280;70931;48.796;8.440;2023-06-24T07:41:38;98101.16;;;17.38;71.52
81511;BME280;70931;48.796;8.440;2023-06-24T07:44:05;98097.31;;;17.47;69.94
81511;BME280;70931;48.796;8.440;2023-06-24T07:46:32;98099.53;;;17.58;70.67
81511;BME280;70931;48.796;8.440;2023-06-24T07:48:58;98094.63;;;17.69;69.41
81511;BME280;70931;48.796;8.440;2023-06-24T07:51:25;98099.47;;;17.80;69.89
81511;BME280;70931;48.796;8.440;2023-06-24T07:53:51;98100.47;;;18.00;67.94
81511;BME280;70931;48.796;8.440;2023-06-24T07:56:18;98099.16;;;18.17;68.20
81511;BME280;70931;48.796;8.440;2023-06-24T07:58:45;98100.59;;;18.47;66.15
81511;BME280;70931;48.796;8.440;2023-06-24T08:01:11;98109.09;;;18.78;66.00
81511;BME280;70931;48.796;8.440;2023-06-24T08:03:38;98104.28;;;19.28;51.57
81511;BME280;70931;48.796;8.440;2023-06-24T08:06:04;98101.47;;;19.75;61.93
81511;BME280;70931;48.796;8.440;2023-06-24T08:08:31;98105.22;;;20.14;61.81
81511;BME280;70931;48.796;8.440;2023-06-24T08:10:57;98095.72;;;20.82;58.57
81511;BME280;70931;48.796;8.440;2023-06-24T08:13:24;98100.44;;;21.75;54.57
81511;BME280;70931;48.796;8.440;2023-06-24T08:15:51;98096.94;;;21.99;54.85
81511;BME280;70931;48.796;8.440;2023-06-24T08:18:17;98090.38;;;22.32;52.94
81511;BME280;70931;48.796;8.440;2023-06-24T08:20:44;98090.97;;;22.34;50.40
81511;BME280;70931;48.796;8.440;2023-06-24T08:23:10;98094.91;;;22.56;51.88
81511;BME280;70931;48.796;8.440;2023-06-24T08:25:37;98099.50;;;22.80;49.50
81511;BME280;70931;48.796;8.440;2023-06-24T08:28:04;98093.81;;;23.48;48.48
81511;BME280;70931;48.796;8.440;2023-06-24T08:30:30;98094.09;;;24.11;49.50
81511;BME280;70931;48.796;8.440;2023-06-24T08:32:58;98078.78;;;24.79;45.08
81511;BME280;70931;48.796;8.440;2023-06-24T08:35:24;98089.28;;;25.39;42.00
81511;BME280;70931;48.796;8.440;2023-06-24T08:37:51;98090.22;;;26.06;38.76
81511;BME280;70931;48.796;8.440;2023-06-24T08:40:18;98080.91;;;26.74;39.12
81511;BME280;70931;48.796;8.440;2023-06-24T08:42:45;98081.78;;;27.17;37.30
81511;BME280;70931;48.796;8.440;2023-06-24T08:45:12;98081.44;;;27.57;35.24
81511;BME280;70931;48.796;8.440;2023-06-24T08:47:40;98081.84;;;28.03;38.15
81511;BME280;70931;48.796;8.440;2023-06-24T08:50:12;98089.03;;;28.04;36.81
81511;BME280;70931;48.796;8.440;2023-06-24T08:52:42;98083.28;;;28.47;33.53
81511;BME280;70931;48.796;8.440;2023-06-24T08:55:13;98076.38;;;28.76;32.28
81511;BME280;70931;48.796;8.440;2023-06-24T08:57:40;98075.41;;;29.08;30.30
81511;BME280;70931;48.796;8.440;2023-06-24T09:00:07;98080.09;;;28.60;32.78
81511;BME280;70931;48.796;8.440;2023-06-24T09:02:37;98087.88;;;28.32;33.04
81511;BME280;70931;48.796;8.440;2023-06-24T09:05:05;98092.22;;;27.21;35.37
81511;BME280;70931;48.796;8.440;2023-06-24T09:07:32;98086.44;;;26.57;40.63
81511;BME280;70931;48.796;8.440;2023-06-24T09:09:59;98085.59;;;25.90;40.95
81511;BME280;70931;48.796;8.440;2023-06-24T09:12:34;98077.50;;;26.28;33.16
81511;BME280;70931;48.796;8.440;2023-06-24T09:15:02;98080.94;;;27.17;37.41
81511;BME280;70931;48.796;8.440;2023-06-24T09:17:29;98074.41;;;27.66;36.34
81511;BME280;70931;48.796;8.440;2023-06-24T09:20:02;98076.97;;;28.10;34.65
81511;BME280;70931;48.796;8.440;2023-06-24T09:22:30;98065.69;;;28.85;31.04
81511;BME280;70931;48.796;8.440;2023-06-24T09:25:00;98064.06;;;29.61;28.30
81511;BME280;70931;48.796;8.440;2023-06-24T09:27:31;98057.25;;;29.99;27.92
81511;BME280;70931;48.796;8.440;2023-06-24T09:29:58;98063.00;;;30.28;28.00
81511;BME280;70931;48.796;8.440;2023-06-24T09:32:31;98058.00;;;30.75;26.19
81511;BME280;70931;48.796;8.440;2023-06-24T09:34:58;98054.66;;;30.93;25.71
81511;BME280;70931;48.796;8.440;2023-06-24T09:37:26;98056.59;;;31.47;24.41
81511;BME280;70931;48.796;8.440;2023-06-24T09:39:57;98059.47;;;31.27;25.48
81511;BME280;70931;48.796;8.440;2023-06-24T09:42:24;98054.94;;;31.56;23.58
81511;BME280;70931;48.796;8.440;2023-06-24T09:44:54;98052.78;;;31.87;25.23
81511;BME280;70931;48.796;8.440;2023-06-24T09:47:21;98043.47;;;32.17;22.94
81511;BME280;70931;48.796;8.440;2023-06-24T09:49:52;98039.22;;;32.53;24.24
81511;BME280;70931;48.796;8.440;2023-06-24T09:52:20;98047.59;;;32.95;22.87
81511;BME280;70931;48.796;8.440;2023-06-24T09:54:50;98045.31;;;33.26;20.67
81511;BME280;70931;48.796;8.440;2023-06-24T09:57:25;98043.22;;;33.37;20.65
81511;BME280;70931;48.796;8.440;2023-06-24T09:59:54;98043.63;;;33.86;19.48
81511;BME280;70931;48.796;8.440;2023-06-24T10:02:21;98041.91;;;34.55;19.06
81511;BME280;70931;48.796;8.440;2023-06-24T10:04:48;98023.94;;;34.52;20.41
81511;BME280;70931;48.796;8.440;2023-06-24T10:07:16;98034.78;;;35.08;19.98
81511;BME280;70931;48.796;8.440;2023-06-24T10:09:43;98032.00;;;35.35;18.82
81511;BME280;70931;48.796;8.440;2023-06-24T10:12:10;98035.47;;;35.77;19.01
81511;BME280;70931;48.796;8.440;2023-06-24T10:14:37;98030.78;;;35.14;17.00
81511;BME280;70931;48.796;8.440;2023-06-24T10:17:04;98025.75;;;35.16;18.45
81511;BME280;70931;48.796;8.440;2023-06-24T10:19:38;98015.66;;;35.20;18.73
81511;BME280;70931;48.796;8.440;2023-06-24T10:22:09;98012.56;;;35.22;17.90
81511;BME280;70931;48.796;8.440;2023-06-24T10:24:39;98016.00;;;33.81;18.41
81511;BME280;70931;48.796;8.440;2023-06-24T10:27:13;98015.97;;;33.49;19.68
81511;BME280;70931;48.796;8.440;2023-06-24T10:29:48;98020.34;;;33.87;18.89
81511;BME280;70931;48.796;8.440;2023-06-24T10:32:15;98006.38;;;33.22;18.96
81511;BME280;70931;48.796;8.440;2023-06-24T10:35:00;97989.88;;;32.17;21.06
81511;BME280;70931;48.796;8.440;2023-06-24T10:37:32;98008.00;;;31.61;23.99
81511;BME280;70931;48.796;8.440;2023-06-24T10:40:00;97995.31;;;32.28;21.46
81511;BME280;70931;48.796;8.440;2023-06-24T10:42:37;97984.69;;;32.40;21.24
81511;BME280;70931;48.796;8.440;2023-06-24T10:47:38;97980.13;;;33.39;19.78
81511;BME280;70931;48.796;8.440;2023-06-24T10:50:06;97979.69;;;33.13;20.72
81511;BME280;70931;48.796;8.440;2023-06-24T10:52:37;97977.59;;;32.57;20.57
81511;BME280;70931;48.796;8.440;2023-06-24T10:55:05;97978.09;;;33.07;22.95
81511;BME280;70931;48.796;8.440;2023-06-24T10:57:32;97975.66;;;34.12;19.96
81511;BME280;70931;48.796;8.440;2023-06-24T11:00:00;97969.03;;;34.41;18.40
81511;BME280;70931;48.796;8.440;2023-06-24T11:02:27;97978.25;;;35.31;17.61
81511;BME280;70931;48.796;8.440;2023-06-24T11:04:59;97982.81;;;34.86;18.25
81511;BME280;70931;48.796;8.440;2023-06-24T11:07:28;97972.41;;;35.19;17.14
81511;BME280;70931;48.796;8.440;2023-06-24T11:09:58;97970.47;;;36.22;15.87
81511;BME280;70931;48.796;8.440;2023-06-24T11:12:27;97973.25;;;36.92;15.93
81511;BME280;70931;48.796;8.440;2023-06-24T11:14:58;97968.34;;;36.89;15.84
81511;BME280;70931;48.796;8.440;2023-06-24T11:17:25;97968.66;;;37.53;16.54
81511;BME280;70931;48.796;8.440;2023-06-24T11:19:53;97959.81;;;37.59;15.98
81511;BME280;70931;48.796;8.440;2023-06-24T11:22:21;97966.03;;;36.91;16.72
81511;BME280;70931;48.796;8.440;2023-06-24T11:24:48;97960.28;;;36.09;17.18
81511;BME280;70931;48.796;8.440;2023-06-24T11:27:15;97952.38;;;36.25;16.17
81511;BME280;70931;48.796;8.440;2023-06-24T11:29:41;97944.22;;;37.24;14.41
81511;BME280;70931;48.796;8.440;2023-06-24T11:32:09;97947.66;;;37.98;14.28
81511;BME280;70931;48.796;8.440;2023-06-24T11:34:36;97939.75;;;37.06;15.90
81511;BME280;70931;48.796;8.440;2023-06-24T11:37:16;97934.56;;;37.82;16.09
81511;BME280;70931;48.796;8.440;2023-06-24T11:39:44;97916.38;;;37.16;16.70
81511;BME280;70931;48.796;8.440;2023-06-24T11:42:11;97931.69;;;36.79;16.17
81511;BME280;70931;48.796;8.440;2023-06-24T11:44:41;97924.41;;;37.34;16.57
81511;BME280;70931;48.796;8.440;2023-06-24T11:47:11;97930.47;;;37.36;15.33
81511;BME280;70931;48.796;8.440;2023-06-24T11:49:52;97908.69;;;37.90;14.53
81511;BME280;70931;48.796;8.440;2023-06-24T11:52:31;97910.31;;;37.91;15.84
81511;BME280;70931;48.796;8.440;2023-06-24T11:54:58;97914.69;;;38.55;14.19
81511;BME280;70931;48.796;8.440;2023-06-24T12:00:27;97890.31;;;39.02;14.21
81511;BME280;70931;48.796;8.440;2023-06-24T12:02:58;97883.91;;;38.43;15.09
81511;BME280;70931;48.796;8.440;2023-06-24T12:05:32;97875.31;;;37.13;15.74
81511;BME280;70931;48.796;8.440;2023-06-24T12:08:07;97888.22;;;37.26;15.85
81511;BME280;70931;48.796;8.440;2023-06-24T12:10:36;97898.38;;;37.13;16.10
81511;BME280;70931;48.796;8.440;2023-06-24T12:13:03;97896.69;;;36.95;14.71
81511;BME280;70931;48.796;8.440;2023-06-24T12:15:32;97895.09;;;37.71;15.29
81511;BME280;70931;48.796;8.440;2023-06-24T12:18:00;97871.63;;;37.81;15.29
81511;BME280;70931;48.796;8.440;2023-06-24T12:20:29;97879.09;;;37.51;17.00
81511;BME280;70931;48.796;8.440;2023-06-24T12:22:56;97869.38;;;37.23;15.62
81511;BME280;70931;48.796;8.440;2023-06-24T12:25:23;97870.38;;;37.35;15.77
81511;BME280;70931;48.796;8.440;2023-06-24T12:27:50;97863.97;;;38.24;15.05
81511;BME280;70931;48.796;8.440;2023-06-24T12:30:17;97867.78;;;38.19;15.62
81511;BME280;70931;48.796;8.440;2023-06-24T12:32:43;97861.78;;;38.00;15.76
81511;BME280;70931;48.796;8.440;2023-06-24T12:35:11;97855.97;;;38.22;15.22
81511;BME280;70931;48.796;8.440;2023-06-24T12:37:37;97846.50;;;38.06;15.60
81511;BME280;70931;48.796;8.440;2023-06-24T12:40:05;97836.19;;;37.18;14.94
81511;BME280;70931;48.796;8.440;2023-06-24T12:42:31;97841.88;;;36.70;15.69
81511;BME280;70931;48.796;8.440;2023-06-24T12:44:59;97836.41;;;36.08;17.34
81511;BME280;70931;48.796;8.440;2023-06-24T12:47:25;97828.94;;;35.33;17.54
81511;BME280;70931;48.796;8.440;2023-06-24T12:49:52;97837.34;;;35.64;17.95
81511;BME280;70931;48.796;8.440;2023-06-24T12:52:19;97835.63;;;35.55;17.36
81511;BME280;70931;48.796;8.440;2023-06-24T12:54:46;97845.19;;;35.48;17.21
81511;BME280;70931;48.796;8.440;2023-06-24T12:57:12;97830.50;;;36.01;15.68
81511;BME280;70931;48.796;8.440;2023-06-24T12:59:40;97831.88;;;36.12;16.46
81511;BME280;70931;48.796;8.440;2023-06-24T13:02:06;97826.06;;;36.39;15.37
81511;BME280;70931;48.796;8.440;2023-06-24T13:04:33;97830.38;;;36.06;15.96
81511;BME280;70931;48.796;8.440;2023-06-24T13:07:00;97832.19;;;36.59;17.03
81511;BME280;70931;48.796;8.440;2023-06-24T13:09:26;97828.25;;;36.60;15.47
81511;BME280;70931;48.796;8.440;2023-06-24T13:11:53;97829.47;;;36.36;16.39
81511;BME280;70931;48.796;8.440;2023-06-24T13:14:19;97820.75;;;36.12;18.10
81511;BME280;70931;48.796;8.440;2023-06-24T13:16:46;97827.41;;;35.72;16.89
81511;BME280;70931;48.796;8.440;2023-06-24T13:19:13;97826.00;;;35.30;16.81
81511;BME280;70931;48.796;8.440;2023-06-24T13:21:41;97818.19;;;36.24;16.24
81511;BME280;70931;48.796;8.440;2023-06-24T13:24:07;97833.41;;;37.18;15.92